createdAt,value
2023-05-07T00:00:02.613Z,0
2023-05-07T00:15:03.056Z,0
2023-05-07T00:30:02.498Z,0
2023-05-07T00:45:02.945Z,0
2023-05-07T01:00:02.413Z,0
2023-05-07T01:15:02.935Z,0
2023-05-07T01:30:02.282Z,0
2023-05-07T01:45:02.914Z,0
2023-05-07T02:00:02.210Z,0
2023-05-07T02:15:02.614Z,0
2023-05-07T02:30:03.072Z,0
2023-05-07T02:45:02.493Z,0
2023-05-07T03:00:02.939Z,0
2023-05-07T03:15:02.362Z,0
2023-05-07T03:30:02.968Z,0
2023-05-07T03:45:02.208Z,0
2023-05-07T04:00:02.665Z,2
2023-05-07T04:15:03.080Z,11
2023-05-07T04:30:02.518Z,15
2023-05-07T04:45:02.971Z,20
2023-05-07T05:00:02.366Z,31
2023-05-07T05:15:02.970Z,40
2023-05-07T05:30:02.273Z,72
2023-05-07T05:45:02.700Z,82
2023-05-07T06:00:03.152Z,81
2023-05-07T06:15:02.563Z,92
2023-05-07T06:30:02.995Z,155
2023-05-07T06:45:02.411Z,132
2023-05-07T07:00:02.982Z,160
2023-05-07T07:15:02.252Z,263
2023-05-07T07:30:02.708Z,248
2023-05-07T07:45:03.109Z,146
2023-05-07T08:00:02.558Z,204
2023-05-07T08:15:02.989Z,243
2023-05-07T08:30:02.415Z,291
2023-05-07T08:45:03.003Z,291
2023-05-07T09:00:02.290Z,627
2023-05-07T09:15:02.747Z,594
2023-05-07T09:30:02.174Z,417
2023-05-07T09:45:02.611Z,414
2023-05-07T10:00:03.092Z,625
2023-05-07T10:15:02.507Z,482
2023-05-07T10:30:03.015Z,658
2023-05-07T10:45:02.398Z,420
2023-05-07T11:00:03.028Z,725
2023-05-07T11:15:02.364Z,488
2023-05-07T11:30:02.751Z,658
2023-05-07T11:45:03.191Z,433
2023-05-07T12:00:02.650Z,405
2023-05-07T12:15:03.065Z,445
2023-05-07T12:30:02.489Z,423
2023-05-07T12:45:03.062Z,529
2023-05-07T13:00:02.394Z,587
2023-05-07T13:15:03.033Z,573
2023-05-07T13:30:02.225Z,540
2023-05-07T13:45:02.673Z,542
2023-05-07T14:00:03.124Z,394
2023-05-07T14:15:02.524Z,358
2023-05-07T14:30:03.127Z,267
2023-05-07T14:45:02.352Z,470
2023-05-07T15:00:03.025Z,249
2023-05-07T15:15:02.263Z,175
2023-05-07T15:30:02.728Z,215
2023-05-07T15:45:03.182Z,242
2023-05-07T16:00:02.589Z,226
2023-05-07T16:15:03.073Z,196
2023-05-07T16:30:02.462Z,144
2023-05-07T16:45:03.089Z,112
2023-05-07T17:00:02.361Z,85
2023-05-07T17:15:02.767Z,66
2023-05-07T17:30:03.203Z,68
2023-05-07T17:45:02.613Z,43
2023-05-07T18:00:03.095Z,26
2023-05-07T18:15:02.469Z,15
2023-05-07T18:30:03.090Z,9
2023-05-07T18:45:02.410Z,1
2023-05-07T19:00:03.028Z,0
2023-05-07T19:15:02.285Z,0
2023-05-07T19:30:02.768Z,0
2023-05-07T19:45:03.178Z,0
2023-05-07T20:00:02.613Z,0
2023-05-07T20:15:03.113Z,0
2023-05-07T20:30:02.528Z,0
2023-05-07T20:45:04.101Z,0
2023-05-07T21:00:02.376Z,0
2023-05-07T21:15:02.793Z,0
2023-05-07T21:30:02.248Z,0
2023-05-07T21:45:02.661Z,0
2023-05-07T22:00:03.126Z,0
2023-05-07T22:15:02.502Z,0
2023-05-07T22:30:03.125Z,0
2023-05-07T22:45:02.367Z,0
2023-05-07T23:00:02.831Z,0
2023-05-07T23:15:02.240Z,0
2023-05-07T23:30:02.677Z,0
2023-05-07T23:45:03.143Z,0
